createdAt,value
2017-03-04T00:00:46.359Z,20.95
2017-03-04T00:01:57.014Z,21.01
2017-03-04T00:03:07.272Z,20.99
2017-03-04T00:04:17.464Z,20.98
2017-03-04T00:05:27.763Z,20.98
2017-03-04T00:06:38.035Z,20.95
2017-03-04T00:07:47.930Z,20.98
2017-03-04T00:08:58.255Z,20.95
2017-03-04T00:10:08.682Z,20.89
2017-03-04T00:11:18.953Z,20.94
2017-03-04T00:12:29.218Z,20.99
2017-03-04T00:13:39.496Z,20.92
2017-03-04T00:14:49.390Z,20.97
2017-03-04T00:15:59.415Z,20.92
2017-03-04T00:17:10.092Z,20.99
2017-03-04T00:18:20.756Z,20.94
2017-03-04T00:19:30.262Z,20.95
2017-03-04T00:20:40.915Z,20.98
2017-03-04T00:21:51.724Z,20.97
2017-03-04T00:23:02.375Z,20.94
2017-03-04T00:24:13.049Z,20.94
2017-03-04T00:25:23.335Z,20.98
2017-03-04T00:26:33.992Z,20.94
2017-03-04T00:27:44.351Z,20.95
2017-03-04T00:28:54.621Z,20.94
2017-03-04T00:30:05.303Z,21.04
2017-03-04T00:31:15.555Z,20.95
2017-03-04T00:32:25.846Z,21.03
2017-03-04T00:33:36.224Z,20.97
2017-03-04T00:34:46.504Z,20.98
2017-03-04T00:35:57.196Z,20.94
2017-03-04T00:37:07.890Z,20.94
2017-03-04T00:38:18.559Z,20.94
2017-03-04T00:39:28.532Z,20.92
2017-03-04T00:40:38.416Z,20.95
2017-03-04T00:41:48.692Z,20.95
2017-03-04T00:42:58.573Z,20.98
2017-03-04T00:44:08.831Z,20.95
2017-03-04T00:45:19.220Z,21.01
2017-03-04T00:46:29.490Z,20.95
2017-03-04T00:47:39.783Z,20.98
2017-03-04T00:48:50.455Z,20.95
2017-03-04T00:49:59.936Z,20.95
2017-03-04T00:51:11.264Z,20.98
2017-03-04T00:52:21.942Z,20.98
2017-03-04T00:53:32.618Z,20.99
2017-03-04T00:54:42.511Z,20.94
2017-03-04T00:55:52.425Z,20.97
2017-03-04T00:57:03.225Z,20.94
2017-03-04T00:58:13.887Z,20.99
2017-03-04T00:59:24.555Z,20.99
2017-03-04T01:00:34.836Z,20.97
2017-03-04T01:01:45.500Z,20.99
2017-03-04T01:02:55.540Z,20.98
2017-03-04T01:04:05.839Z,20.94
2017-03-04T01:05:16.497Z,20.99
2017-03-04T01:06:27.174Z,20.92
2017-03-04T01:07:37.422Z,21.03
2017-03-04T01:08:48.221Z,20.97
2017-03-04T01:09:58.485Z,20.97
2017-03-04T01:11:09.131Z,20.98
2017-03-04T01:12:19.778Z,20.94
2017-03-04T01:13:30.042Z,21.01
2017-03-04T01:14:40.840Z,21.03
2017-03-04T01:15:51.100Z,21.04
2017-03-04T01:17:01.391Z,20.99
2017-03-04T01:18:11.282Z,20.95
2017-03-04T01:19:21.544Z,20.99
2017-03-04T01:20:31.571Z,20.98
2017-03-04T01:21:42.239Z,20.99
2017-03-04T01:22:52.502Z,20.99
2017-03-04T01:24:03.180Z,20.99
2017-03-04T01:25:13.847Z,21.03
2017-03-04T01:26:23.497Z,21.03
2017-03-04T01:27:33.390Z,20.98
2017-03-04T01:28:43.268Z,20.98
2017-03-04T01:29:53.533Z,20.99
2017-03-04T01:31:04.189Z,20.97
2017-03-04T01:32:14.636Z,20.94
2017-03-04T01:33:24.920Z,20.97
2017-03-04T01:34:35.202Z,21.03
2017-03-04T01:35:45.461Z,20.99
2017-03-04T01:36:56.101Z,20.99
2017-03-04T01:38:06.908Z,21.06
2017-03-04T01:39:17.466Z,21.04
2017-03-04T01:40:27.720Z,20.99
2017-03-04T01:41:37.983Z,20.99
2017-03-04T01:42:48.240Z,20.95
2017-03-04T01:43:59.037Z,20.98
2017-03-04T01:45:09.298Z,20.95
2017-03-04T01:46:19.990Z,20.95
2017-03-04T01:47:29.885Z,20.94
2017-03-04T01:48:40.192Z,20.94
2017-03-04T01:49:50.612Z,20.99
2017-03-04T01:51:00.935Z,20.99
2017-03-04T01:52:11.204Z,21.03
2017-03-04T01:53:21.475Z,21.03
2017-03-04T01:54:32.117Z,20.99
2017-03-04T01:55:42.920Z,20.99
2017-03-04T01:56:52.833Z,20.99
2017-03-04T01:58:03.087Z,21.03
2017-03-04T01:59:13.364Z,21.04
2017-03-04T02:00:24.037Z,20.98
2017-03-04T02:01:34.098Z,20.99
2017-03-04T02:02:44.378Z,20.95
2017-03-04T02:03:55.042Z,21.03
2017-03-04T02:05:04.930Z,20.97
2017-03-04T02:06:15.585Z,20.95
2017-03-04T02:07:26.383Z,20.95
2017-03-04T02:08:37.042Z,20.99
2017-03-04T02:09:47.339Z,20.95
2017-03-04T02:10:57.238Z,21.03
2017-03-04T02:12:07.885Z,21.01
2017-03-04T02:13:19.651Z,20.92
2017-03-04T02:14:29.921Z,20.95
2017-03-04T02:15:40.605Z,20.94
2017-03-04T02:16:50.872Z,20.95
2017-03-04T02:18:01.542Z,20.97
2017-03-04T02:19:11.964Z,21.01
2017-03-04T02:20:22.238Z,20.94
2017-03-04T02:21:32.904Z,20.97
2017-03-04T02:22:42.803Z,21.03
2017-03-04T02:23:53.074Z,20.98
2017-03-04T02:25:03.878Z,20.97
2017-03-04T02:26:14.536Z,20.94
2017-03-04T02:27:24.811Z,20.98
2017-03-04T02:28:35.470Z,20.98
2017-03-04T02:29:45.354Z,20.95
2017-03-04T02:30:55.762Z,20.95
2017-03-04T02:32:05.262Z,20.97
2017-03-04T02:33:15.928Z,20.91
2017-03-04T02:34:26.592Z,20.99
2017-03-04T02:35:37.244Z,20.95
2017-03-04T02:36:46.895Z,20.98
2017-03-04T02:37:57.567Z,20.92
2017-03-04T02:39:08.243Z,20.94
2017-03-04T02:40:18.117Z,20.99
2017-03-04T02:41:28.783Z,20.94
2017-03-04T02:42:39.592Z,20.99
2017-03-04T02:43:49.468Z,20.98
2017-03-04T02:45:00.146Z,20.98
2017-03-04T02:46:10.810Z,20.92
2017-03-04T02:47:21.072Z,20.99
2017-03-04T02:48:31.881Z,20.97
2017-03-04T02:49:41.389Z,20.91
2017-03-04T02:50:51.296Z,20.91
2017-03-04T02:52:01.237Z,20.98
2017-03-04T02:53:11.118Z,20.92
2017-03-04T02:54:21.881Z,20.95
2017-03-04T02:55:32.138Z,20.94
2017-03-04T02:56:41.260Z,20.95
2017-03-04T02:57:50.767Z,20.91
2017-03-04T02:59:01.444Z,20.94
2017-03-04T03:00:11.480Z,20.95
2017-03-04T03:01:21.757Z,20.94
2017-03-04T03:02:32.415Z,20.94
2017-03-04T03:03:42.701Z,20.95
2017-03-04T03:04:52.988Z,20.94
2017-03-04T03:06:03.399Z,20.91
2017-03-04T03:07:13.670Z,20.92
2017-03-04T03:08:23.555Z,20.95
2017-03-04T03:09:34.226Z,20.91
2017-03-04T03:10:44.518Z,20.99
2017-03-04T03:11:55.289Z,20.92
2017-03-04T03:13:05.590Z,20.92
2017-03-04T03:14:15.902Z,20.95
2017-03-04T03:15:25.399Z,20.95
2017-03-04T03:16:36.064Z,20.95
2017-03-04T03:17:46.827Z,20.95
2017-03-04T03:18:57.101Z,20.89
2017-03-04T03:20:06.597Z,20.95
2017-03-04T03:21:17.254Z,20.92
2017-03-04T03:22:27.931Z,20.92
2017-03-04T03:23:40.330Z,20.98
2017-03-04T03:24:50.632Z,20.91
2017-03-04T03:26:00.899Z,20.94
2017-03-04T03:27:11.541Z,20.95
2017-03-04T03:28:21.420Z,20.92
2017-03-04T03:29:31.825Z,20.89
2017-03-04T03:30:42.483Z,20.94
2017-03-04T03:31:52.372Z,20.88
2017-03-04T03:33:02.254Z,20.98
2017-03-04T03:34:12.180Z,20.94
2017-03-04T03:35:22.203Z,20.95
2017-03-04T03:36:32.861Z,20.94
2017-03-04T03:37:43.140Z,20.91
2017-03-04T03:38:53.037Z,20.88
2017-03-04T03:40:03.711Z,20.95
2017-03-04T03:41:14.136Z,20.92
2017-03-04T03:42:24.831Z,20.92
2017-03-04T03:43:35.084Z,20.92
2017-03-04T03:44:44.946Z,20.91
2017-03-04T03:45:55.603Z,20.91
2017-03-04T03:47:05.644Z,20.91
2017-03-04T03:48:15.520Z,20.91
2017-03-04T03:49:25.792Z,20.88
2017-03-04T03:50:36.459Z,20.97
2017-03-04T03:51:46.753Z,20.89
2017-03-04T03:52:56.771Z,20.88
2017-03-04T03:54:07.050Z,20.79
2017-03-04T03:55:17.304Z,20.89
2017-03-04T03:56:27.191Z,20.8
2017-03-04T03:57:37.459Z,20.84
2017-03-04T03:58:48.277Z,20.84
2017-03-04T03:59:58.537Z,20.87
2017-03-04T04:01:09.192Z,20.92
2017-03-04T04:02:19.839Z,20.87
2017-03-04T04:03:30.134Z,20.82
2017-03-04T04:04:40.944Z,20.87
2017-03-04T04:05:51.616Z,20.84
2017-03-04T04:07:01.900Z,20.84
2017-03-04T04:08:11.793Z,20.82
2017-03-04T04:09:22.446Z,20.87
2017-03-04T04:10:33.022Z,20.92
2017-03-04T04:11:42.890Z,20.91
2017-03-04T04:12:53.557Z,20.85
2017-03-04T04:14:03.838Z,20.84
2017-03-04T04:15:14.486Z,20.84
2017-03-04T04:16:25.296Z,20.82
2017-03-04T04:17:35.602Z,20.91
2017-03-04T04:18:45.866Z,20.84
2017-03-04T04:19:56.154Z,20.82
2017-03-04T04:21:06.865Z,20.84
2017-03-04T04:22:17.574Z,20.84
2017-03-04T04:23:27.459Z,20.8
2017-03-04T04:24:38.117Z,20.92
2017-03-04T04:25:48.764Z,20.85
2017-03-04T04:26:59.044Z,20.84
2017-03-04T04:28:09.887Z,20.84
2017-03-04T04:29:20.171Z,20.87
2017-03-04T04:30:30.447Z,20.85
2017-03-04T04:31:40.719Z,20.82
2017-03-04T04:32:51.045Z,20.88
2017-03-04T04:34:01.483Z,20.84
2017-03-04T04:35:11.737Z,20.87
2017-03-04T04:36:21.611Z,20.91
2017-03-04T04:37:32.261Z,20.82
2017-03-04T04:38:41.752Z,20.88
2017-03-04T04:39:52.188Z,20.82
2017-03-04T04:41:02.822Z,20.87
2017-03-04T04:42:13.082Z,20.84
2017-03-04T04:43:23.748Z,20.87
2017-03-04T04:44:34.004Z,20.82
2017-03-04T04:45:44.423Z,20.79
2017-03-04T04:46:54.696Z,20.82
2017-03-04T04:48:05.352Z,20.87
2017-03-04T04:49:15.600Z,20.87
2017-03-04T04:50:25.894Z,20.85
2017-03-04T04:51:36.880Z,20.87
2017-03-04T04:52:47.557Z,20.88
2017-03-04T04:53:57.837Z,20.87
2017-03-04T04:55:08.510Z,20.85
2017-03-04T04:56:19.174Z,20.91
2017-03-04T04:57:29.974Z,20.89
2017-03-04T04:58:40.656Z,20.89
2017-03-04T04:59:51.315Z,20.91
2017-03-04T05:01:01.967Z,20.84
2017-03-04T05:02:12.242Z,20.87
2017-03-04T05:03:22.703Z,20.84
2017-03-04T05:04:33.000Z,20.8
2017-03-04T05:05:43.269Z,20.84
2017-03-04T05:06:53.576Z,20.8
2017-03-04T05:08:04.237Z,20.84
2017-03-04T05:09:14.668Z,20.84
2017-03-04T05:10:24.955Z,20.85
2017-03-04T05:11:35.236Z,20.87
2017-03-04T05:12:45.905Z,20.82
2017-03-04T05:13:55.802Z,20.85
2017-03-04T05:15:07.251Z,20.84
2017-03-04T05:16:16.894Z,20.87
2017-03-04T05:17:27.167Z,20.79
2017-03-04T05:18:37.045Z,20.89
2017-03-04T05:19:47.302Z,20.87
2017-03-04T05:20:58.064Z,20.87
2017-03-04T05:22:07.564Z,20.89
2017-03-04T05:23:18.234Z,20.91
2017-03-04T05:24:28.895Z,20.92
2017-03-04T05:25:39.186Z,20.84
2017-03-04T05:26:49.959Z,20.89
2017-03-04T05:28:00.654Z,20.87
2017-03-04T05:29:10.534Z,20.88
2017-03-04T05:30:21.194Z,20.85
2017-03-04T05:31:30.683Z,20.94
2017-03-04T05:32:41.058Z,20.92
2017-03-04T05:33:51.712Z,20.91
2017-03-04T05:35:01.588Z,20.91
2017-03-04T05:36:11.915Z,20.89
2017-03-04T05:37:22.203Z,20.87
2017-03-04T05:38:32.972Z,20.84
2017-03-04T05:39:43.252Z,20.92
2017-03-04T05:40:53.128Z,20.84
2017-03-04T05:42:03.404Z,20.85
2017-03-04T05:43:13.662Z,20.89
2017-03-04T05:44:24.056Z,20.82
2017-03-04T05:45:34.313Z,20.94
2017-03-04T05:46:44.190Z,20.92
2017-03-04T05:47:54.854Z,20.91
2017-03-04T05:49:05.145Z,20.82
2017-03-04T05:50:15.584Z,20.89
2017-03-04T05:51:25.899Z,20.92
2017-03-04T05:52:35.791Z,20.88
2017-03-04T05:53:45.669Z,20.91
2017-03-04T05:54:55.560Z,20.91
2017-03-04T05:56:06.358Z,20.95
2017-03-04T05:57:17.029Z,20.94
2017-03-04T05:58:27.297Z,20.92
2017-03-04T05:59:37.683Z,20.89
2017-03-04T06:00:48.358Z,20.91
2017-03-04T06:01:59.190Z,20.94
2017-03-04T06:03:09.083Z,20.95
2017-03-04T06:04:19.365Z,20.92
2017-03-04T06:05:29.624Z,20.95
2017-03-04T06:06:40.303Z,20.95
2017-03-04T06:07:51.122Z,20.91
2017-03-04T06:09:01.436Z,20.89
2017-03-04T06:10:11.689Z,20.95
2017-03-04T06:11:21.982Z,20.97
2017-03-04T06:12:31.490Z,20.95
2017-03-04T06:13:42.212Z,20.99
2017-03-04T06:14:52.870Z,20.95
2017-03-04T06:16:03.135Z,20.95
2017-03-04T06:17:13.015Z,20.95
2017-03-04T06:18:23.306Z,20.95
2017-03-04T06:19:33.340Z,20.95
2017-03-04T06:20:42.832Z,20.92
2017-03-04T06:21:53.127Z,20.98
2017-03-04T06:23:03.768Z,20.98
2017-03-04T06:24:14.028Z,21.03
2017-03-04T06:25:24.076Z,20.98
2017-03-04T06:26:33.551Z,20.97
2017-03-04T06:27:44.213Z,20.94
2017-03-04T06:28:54.514Z,20.97
2017-03-04T06:30:05.221Z,20.94
2017-03-04T06:31:15.646Z,21.03
2017-03-04T06:32:25.143Z,20.92
2017-03-04T06:33:35.093Z,20.99
2017-03-04T06:34:44.984Z,20.92
2017-03-04T06:35:55.247Z,20.94
2017-03-04T06:37:05.684Z,20.98
2017-03-04T06:38:15.968Z,20.95
2017-03-04T06:39:26.245Z,20.94
2017-03-04T06:40:36.521Z,20.98
2017-03-04T06:41:47.238Z,20.95
2017-03-04T06:42:57.663Z,20.99
2017-03-04T06:44:08.357Z,20.94
2017-03-04T06:45:18.655Z,20.98
2017-03-04T06:46:28.539Z,20.99
2017-03-04T06:47:39.214Z,20.95
2017-03-04T06:48:49.641Z,20.99
2017-03-04T06:50:00.301Z,21.04
2017-03-04T06:51:10.580Z,21.01
2017-03-04T06:52:21.242Z,20.98
2017-03-04T06:53:31.522Z,21.01
2017-03-04T06:54:41.958Z,20.94
2017-03-04T06:55:52.607Z,20.97
2017-03-04T06:57:02.854Z,21.03
2017-03-04T06:58:12.748Z,20.94
2017-03-04T06:59:23.023Z,20.99
2017-03-04T07:00:33.045Z,21.04
2017-03-04T07:01:43.699Z,21.03
2017-03-04T07:02:54.349Z,21.03
2017-03-04T07:04:05.014Z,21.04
2017-03-04T07:05:14.880Z,21.1
2017-03-04T07:06:25.367Z,21.06
2017-03-04T07:07:35.252Z,21.06
2017-03-04T07:08:45.548Z,20.98
2017-03-04T07:09:56.217Z,21.06
2017-03-04T07:11:06.879Z,21.06
2017-03-04T07:12:16.896Z,21.06
2017-03-04T07:13:27.170Z,21.01
2017-03-04T07:14:37.421Z,21.1
2017-03-04T07:15:48.122Z,21.07
2017-03-04T07:16:58.437Z,21.07
2017-03-04T07:18:08.467Z,21.06
2017-03-04T07:19:18.743Z,21.04
2017-03-04T07:20:29.428Z,21.04
2017-03-04T07:21:39.321Z,21.04
2017-03-04T07:22:49.600Z,21.17
2017-03-04T07:24:00.208Z,21.13
2017-03-04T07:25:10.878Z,21.13
2017-03-04T07:26:21.534Z,21.21
2017-03-04T07:27:32.212Z,21.13
2017-03-04T07:28:42.513Z,21.12
2017-03-04T07:29:52.962Z,21.06
2017-03-04T07:31:02.449Z,21.13
2017-03-04T07:32:12.771Z,21.16
2017-03-04T07:33:23.066Z,21.13
2017-03-04T07:34:33.335Z,21.13
2017-03-04T07:35:44.115Z,21.14
2017-03-04T07:36:54.340Z,21.19
2017-03-04T07:38:04.998Z,21.21
2017-03-04T07:39:15.267Z,21.24
2017-03-04T07:40:25.167Z,21.21
2017-03-04T07:41:35.195Z,21.25
2017-03-04T07:42:44.685Z,21.28
2017-03-04T07:43:55.387Z,21.42
2017-03-04T07:45:06.057Z,21.37
2017-03-04T07:46:16.342Z,21.4
2017-03-04T07:47:26.734Z,21.52
2017-03-04T07:48:37.024Z,21.53
2017-03-04T07:49:47.307Z,21.53
2017-03-04T07:50:57.584Z,21.58
2017-03-04T07:52:07.845Z,21.67
2017-03-04T07:53:18.234Z,21.71
2017-03-04T07:54:28.129Z,21.74
2017-03-04T07:55:38.798Z,21.71
2017-03-04T07:56:49.066Z,21.9
2017-03-04T07:57:59.332Z,21.96
2017-03-04T07:59:09.199Z,21.99
2017-03-04T08:00:19.487Z,21.94
2017-03-04T08:01:30.159Z,22.09
2017-03-04T08:02:40.851Z,22.09
2017-03-04T08:03:50.378Z,22.09
2017-03-04T08:05:01.399Z,22.18
2017-03-04T08:06:11.678Z,22.17
2017-03-04T08:07:22.327Z,22.21
2017-03-04T08:08:32.999Z,22.3
2017-03-04T08:09:43.689Z,22.3
2017-03-04T08:10:54.119Z,22.37
2017-03-04T08:12:04.783Z,22.36
2017-03-04T08:13:15.069Z,22.43
2017-03-04T08:14:25.359Z,22.42
2017-03-04T08:15:35.652Z,22.45
2017-03-04T08:16:45.674Z,22.49
2017-03-04T08:17:55.978Z,22.57
2017-03-04T08:19:06.655Z,22.55
2017-03-04T08:20:16.572Z,22.64
2017-03-04T08:21:26.856Z,22.57
2017-03-04T08:22:37.303Z,22.67
2017-03-04T08:23:47.203Z,22.57
2017-03-04T08:24:56.724Z,22.58
2017-03-04T08:26:06.633Z,22.64
2017-03-04T08:27:16.525Z,22.73
2017-03-04T08:28:27.349Z,22.65
2017-03-04T08:29:37.228Z,22.77
2017-03-04T08:30:47.898Z,22.88
2017-03-04T08:31:57.767Z,22.91
2017-03-04T08:33:08.458Z,22.98
2017-03-04T08:34:18.897Z,23.05
2017-03-04T08:35:29.582Z,23.12
2017-03-04T08:36:39.844Z,23.16
2017-03-04T08:37:50.535Z,23.19
2017-03-04T08:39:00.893Z,23.31
2017-03-04T08:40:10.939Z,23.36
2017-03-04T08:41:21.223Z,23.35
2017-03-04T08:42:31.905Z,23.4
2017-03-04T08:43:42.328Z,23.42
2017-03-04T08:44:53.019Z,23.54
2017-03-04T08:46:03.854Z,23.5
2017-03-04T08:47:14.121Z,23.6
2017-03-04T08:48:24.513Z,23.65
2017-03-04T08:49:36.148Z,23.63
2017-03-04T08:50:46.611Z,23.66
2017-03-04T08:51:57.088Z,23.72
2017-03-04T08:53:07.021Z,23.78
2017-03-04T08:54:17.724Z,23.79
2017-03-04T08:55:28.069Z,23.88
2017-03-04T08:56:37.633Z,23.94
2017-03-04T08:57:48.462Z,23.93
2017-03-04T08:58:59.619Z,23.93
2017-03-04T09:00:09.556Z,24.03
2017-03-04T09:01:19.885Z,24.09
2017-03-04T09:02:30.186Z,24.15
2017-03-04T09:03:39.863Z,24.15
2017-03-04T09:04:50.202Z,24.31
2017-03-04T09:06:00.512Z,24.21
2017-03-04T09:07:10.730Z,24.31
2017-03-04T09:08:20.580Z,24.45
2017-03-04T09:09:31.088Z,24.3
2017-03-04T09:10:41.935Z,24.4
2017-03-04T09:11:52.253Z,24.45
2017-03-04T09:13:02.190Z,24.46
2017-03-04T09:14:13.257Z,24.53
2017-03-04T09:15:24.258Z,24.6
2017-03-04T09:16:33.813Z,24.55
2017-03-04T09:17:44.113Z,24.55
2017-03-04T09:18:55.090Z,24.58
2017-03-04T09:20:05.426Z,24.53
2017-03-04T09:21:16.303Z,24.6
2017-03-04T09:22:26.228Z,24.65
2017-03-04T09:23:36.512Z,24.58
2017-03-04T09:24:47.168Z,24.64
2017-03-04T09:25:57.056Z,24.62
2017-03-04T09:27:07.874Z,24.62
2017-03-04T09:28:18.159Z,24.68
2017-03-04T09:29:28.441Z,24.69
2017-03-04T09:30:39.138Z,24.76
2017-03-04T09:31:49.415Z,24.69
2017-03-04T09:33:00.248Z,24.73
2017-03-04T09:34:10.913Z,24.69
2017-03-04T09:35:21.561Z,24.73
2017-03-04T09:36:31.843Z,24.69
2017-03-04T09:37:42.807Z,24.76
2017-03-04T09:38:53.181Z,24.76
2017-03-04T09:40:03.832Z,24.73
2017-03-04T09:41:14.126Z,24.67
2017-03-04T09:42:24.806Z,24.67
2017-03-04T09:43:34.675Z,24.64
2017-03-04T09:44:45.052Z,24.67
2017-03-04T09:45:54.961Z,24.68
2017-03-04T09:47:05.255Z,24.62
2017-03-04T09:48:15.925Z,24.68
2017-03-04T09:49:26.190Z,24.55
2017-03-04T09:50:36.592Z,24.53
2017-03-04T09:51:47.271Z,24.55
2017-03-04T09:52:57.922Z,24.58
2017-03-04T09:54:08.213Z,24.58
2017-03-04T09:55:18.868Z,24.49
2017-03-04T09:56:28.891Z,24.45
2017-03-04T09:57:39.167Z,24.46
2017-03-04T09:58:49.854Z,24.42
2017-03-04T10:00:00.127Z,24.43
2017-03-04T10:01:10.699Z,24.32
2017-03-04T10:02:21.396Z,24.3
2017-03-04T10:03:31.293Z,24.43
2017-03-04T10:04:41.566Z,24.35
2017-03-04T10:05:52.232Z,24.28
2017-03-04T10:07:02.922Z,24.28
2017-03-04T10:08:12.961Z,24.28
2017-03-04T10:09:23.280Z,24.25
2017-03-04T10:10:33.568Z,24.2
2017-03-04T10:11:43.886Z,24.24
2017-03-04T10:12:54.536Z,24.06
2017-03-04T10:14:04.968Z,24.13
2017-03-04T10:15:15.253Z,24.05
2017-03-04T10:16:25.538Z,24.02
2017-03-04T10:17:36.204Z,23.94
2017-03-04T10:18:46.879Z,24
2017-03-04T10:19:57.080Z,23.93
2017-03-04T10:21:06.610Z,23.88
2017-03-04T10:22:17.290Z,23.94
2017-03-04T10:23:27.560Z,23.84
2017-03-04T10:24:37.837Z,23.91
2017-03-04T10:25:48.660Z,23.76
2017-03-04T10:26:58.945Z,23.83
2017-03-04T10:28:09.591Z,23.75
2017-03-04T10:29:19.865Z,23.73
2017-03-04T10:30:30.517Z,23.78
2017-03-04T10:31:41.346Z,23.84
2017-03-04T10:32:51.995Z,23.84
2017-03-04T10:34:02.640Z,23.83
2017-03-04T10:35:13.312Z,23.79
2017-03-04T10:36:23.576Z,23.8
2017-03-04T10:37:34.195Z,23.79
2017-03-04T10:38:44.843Z,23.78
2017-03-04T10:39:55.115Z,23.75
2017-03-04T10:41:05.425Z,23.69
2017-03-04T10:42:16.132Z,23.83
2017-03-04T10:43:26.930Z,23.78
2017-03-04T10:44:36.812Z,23.83
2017-03-04T10:45:47.486Z,23.75
2017-03-04T10:46:58.176Z,23.76
2017-03-04T10:48:08.462Z,23.83
2017-03-04T10:49:19.296Z,23.75
2017-03-04T10:50:29.164Z,23.76
2017-03-04T10:51:39.429Z,23.7
2017-03-04T10:52:50.091Z,23.79
2017-03-04T10:54:00.764Z,23.73
2017-03-04T10:55:10.771Z,23.87
2017-03-04T10:56:21.051Z,23.65
2017-03-04T10:57:31.330Z,23.79
2017-03-04T10:58:41.980Z,23.78
2017-03-04T10:59:51.847Z,23.87
2017-03-04T11:01:02.667Z,23.78
2017-03-04T11:02:13.329Z,23.84
2017-03-04T11:03:23.600Z,23.76
2017-03-04T11:04:34.537Z,23.73
2017-03-04T11:05:44.809Z,23.76
2017-03-04T11:06:54.440Z,23.7
2017-03-04T11:08:03.981Z,23.75
2017-03-04T11:09:14.658Z,23.73
2017-03-04T11:10:24.946Z,23.75
2017-03-04T11:11:35.231Z,23.63
2017-03-04T11:12:45.660Z,23.72
2017-03-04T11:13:56.340Z,23.76
2017-03-04T11:15:06.615Z,23.73
2017-03-04T11:16:16.882Z,23.72
2017-03-04T11:17:27.559Z,23.68
2017-03-04T11:18:38.362Z,23.76
2017-03-04T11:19:48.273Z,23.73
2017-03-04T11:20:58.957Z,23.76
2017-03-04T11:22:09.246Z,23.63
2017-03-04T11:23:19.898Z,23.72
2017-03-04T11:24:30.333Z,23.66
2017-03-04T11:25:41.007Z,23.58
2017-03-04T11:26:51.282Z,23.61
2017-03-04T11:28:01.944Z,23.65
2017-03-04T11:29:12.245Z,23.61
2017-03-04T11:30:22.666Z,23.61
2017-03-04T11:31:32.551Z,23.61
2017-03-04T11:32:42.876Z,23.61
2017-03-04T11:33:53.176Z,23.57
2017-03-04T11:35:03.857Z,23.6
2017-03-04T11:36:14.676Z,23.61
2017-03-04T11:37:24.577Z,23.63
2017-03-04T11:38:34.086Z,23.57
2017-03-04T11:39:44.774Z,23.57
2017-03-04T11:40:55.081Z,23.61
2017-03-04T11:42:05.922Z,23.61
2017-03-04T11:43:16.216Z,23.63
2017-03-04T11:44:26.487Z,23.65
2017-03-04T11:45:36.392Z,23.57
2017-03-04T11:46:47.068Z,23.54
2017-03-04T11:47:57.125Z,23.54
2017-03-04T11:49:07.020Z,23.51
2017-03-04T11:50:16.904Z,23.57
2017-03-04T11:51:26.784Z,23.55
2017-03-04T11:52:37.104Z,23.53
2017-03-04T11:53:47.497Z,23.5
2017-03-04T11:54:57.437Z,23.57
2017-03-04T11:56:07.715Z,23.5
2017-03-04T11:57:18.411Z,23.5
2017-03-04T11:58:28.707Z,23.54
2017-03-04T11:59:38.997Z,23.51
2017-03-04T12:00:48.903Z,23.55
2017-03-04T12:01:59.578Z,23.51
2017-03-04T12:03:10.270Z,23.53
2017-03-04T12:04:20.579Z,23.48
2017-03-04T12:05:31.378Z,23.51
2017-03-04T12:06:42.037Z,23.5
2017-03-04T12:07:51.941Z,23.5
2017-03-04T12:09:02.204Z,23.47
2017-03-04T12:10:12.479Z,23.48
2017-03-04T12:11:22.840Z,23.5
2017-03-04T12:12:33.497Z,23.48
2017-03-04T12:13:43.791Z,23.46
2017-03-04T12:14:54.462Z,23.43
2017-03-04T12:16:04.757Z,23.48
2017-03-04T12:17:15.131Z,23.4
2017-03-04T12:18:25.428Z,23.47
2017-03-04T12:19:35.317Z,23.43
2017-03-04T12:20:45.626Z,23.42
2017-03-04T12:21:55.512Z,23.51
2017-03-04T12:23:05.981Z,23.43
2017-03-04T12:24:16.634Z,23.46
2017-03-04T12:25:27.322Z,23.42
2017-03-04T12:26:37.248Z,23.43
2017-03-04T12:27:47.531Z,23.42
2017-03-04T12:28:57.588Z,23.48
2017-03-04T12:30:07.487Z,23.43
2017-03-04T12:31:17.773Z,23.47
2017-03-04T12:32:28.432Z,23.46
2017-03-04T12:33:39.112Z,23.47
2017-03-04T12:34:49.923Z,23.5
2017-03-04T12:36:00.213Z,23.51
2017-03-04T12:37:10.869Z,23.51
2017-03-04T12:38:21.563Z,23.46
2017-03-04T12:39:31.451Z,23.47
2017-03-04T12:40:41.881Z,23.46
2017-03-04T12:41:51.805Z,23.47
2017-03-04T12:43:02.488Z,23.5
2017-03-04T12:44:12.752Z,23.54
2017-03-04T12:45:23.454Z,23.51
2017-03-04T12:46:33.904Z,23.54
2017-03-04T12:47:44.588Z,23.51
2017-03-04T12:48:54.867Z,23.51
2017-03-04T12:50:04.787Z,23.54
2017-03-04T12:51:14.692Z,23.55
2017-03-04T12:52:25.119Z,23.5
2017-03-04T12:53:35.034Z,23.48
2017-03-04T12:54:44.939Z,23.5
2017-03-04T12:55:54.840Z,23.5
2017-03-04T12:57:05.150Z,23.47
2017-03-04T12:58:15.599Z,23.51
2017-03-04T12:59:25.113Z,23.53
2017-03-04T13:00:36.136Z,23.5
2017-03-04T13:01:46.079Z,23.47
2017-03-04T13:02:56.767Z,23.46
2017-03-04T13:04:07.599Z,23.48
2017-03-04T13:05:17.160Z,23.42
2017-03-04T13:06:27.432Z,23.57
2017-03-04T13:07:38.105Z,23.5
2017-03-04T13:08:48.452Z,23.46
2017-03-04T13:09:58.880Z,23.48
2017-03-04T13:11:09.159Z,23.43
2017-03-04T13:12:19.825Z,23.47
2017-03-04T13:13:29.721Z,23.47
2017-03-04T13:14:39.998Z,23.48
2017-03-04T13:15:50.040Z,23.42
2017-03-04T13:17:00.769Z,23.43
2017-03-04T13:18:11.454Z,23.4
2017-03-04T13:19:21.338Z,23.42
2017-03-04T13:20:31.202Z,23.43
2017-03-04T13:21:41.615Z,23.42
2017-03-04T13:22:51.893Z,23.42
2017-03-04T13:24:02.173Z,23.38
2017-03-04T13:25:12.464Z,23.47
2017-03-04T13:26:23.131Z,23.36
2017-03-04T13:27:33.566Z,23.43
2017-03-04T13:28:43.253Z,23.47
2017-03-04T13:29:53.520Z,23.43
2017-03-04T13:31:03.829Z,23.46
2017-03-04T13:32:13.734Z,23.46
2017-03-04T13:33:23.762Z,23.43
2017-03-04T13:34:33.323Z,23.31
2017-03-04T13:35:43.598Z,23.42
2017-03-04T13:36:53.878Z,23.39
2017-03-04T13:38:04.832Z,23.35
2017-03-04T13:39:14.865Z,23.39
2017-03-04T13:40:25.540Z,23.42
2017-03-04T13:41:35.816Z,23.4
2017-03-04T13:42:45.326Z,23.4
2017-03-04T13:43:55.985Z,23.32
2017-03-04T13:45:06.836Z,23.43
2017-03-04T13:46:17.169Z,23.38
2017-03-04T13:47:27.427Z,23.36
2017-03-04T13:48:38.095Z,23.35
2017-03-04T13:49:48.439Z,23.35
2017-03-04T13:50:58.876Z,23.42
2017-03-04T13:52:08.773Z,23.35
2017-03-04T13:53:19.056Z,23.39
2017-03-04T13:54:29.339Z,23.39
2017-03-04T13:55:39.620Z,23.35
2017-03-04T13:56:50.396Z,23.4
2017-03-04T13:57:59.931Z,23.39
2017-03-04T13:59:10.203Z,23.28
2017-03-04T14:00:20.476Z,23.28
2017-03-04T14:01:29.975Z,23.23
2017-03-04T14:02:39.972Z,23.35
2017-03-04T14:03:49.895Z,23.33
2017-03-04T14:05:00.573Z,23.25
2017-03-04T14:06:10.853Z,23.36
2017-03-04T14:07:20.785Z,23.23
2017-03-04T14:08:30.810Z,23.31
2017-03-04T14:09:41.100Z,23.28
2017-03-04T14:10:51.387Z,23.42
2017-03-04T14:12:02.076Z,23.38
2017-03-04T14:13:12.027Z,23.25
2017-03-04T14:14:22.452Z,23.25
2017-03-04T14:15:32.920Z,23.23
2017-03-04T14:16:43.260Z,23.33
2017-03-04T14:17:53.923Z,23.31
2017-03-04T14:19:04.245Z,23.36
2017-03-04T14:20:15.024Z,23.32
2017-03-04T14:21:24.928Z,23.25
2017-03-04T14:22:35.631Z,23.35
2017-03-04T14:23:46.052Z,23.33
2017-03-04T14:24:56.401Z,23.36
2017-03-04T14:26:07.219Z,23.42
2017-03-04T14:27:16.747Z,23.39
2017-03-04T14:28:27.425Z,23.46
2017-03-04T14:29:38.104Z,23.43
2017-03-04T14:30:47.664Z,23.5
2017-03-04T14:31:58.112Z,23.5
2017-03-04T14:33:08.819Z,23.57
2017-03-04T14:34:19.119Z,23.54
2017-03-04T14:35:29.411Z,23.58
2017-03-04T14:36:38.956Z,23.66
2017-03-04T14:37:50.131Z,23.61
2017-03-04T14:39:00.821Z,23.66
2017-03-04T14:40:11.108Z,23.7
2017-03-04T14:41:21.402Z,23.76
2017-03-04T14:42:31.301Z,23.72
2017-03-04T14:43:41.755Z,23.75
2017-03-04T14:44:52.433Z,23.65
2017-03-04T14:46:03.135Z,23.8
2017-03-04T14:47:13.413Z,23.9
2017-03-04T14:48:23.726Z,23.76
2017-03-04T14:49:34.187Z,23.73
2017-03-04T14:50:44.876Z,23.84
2017-03-04T14:51:55.174Z,23.87
2017-03-04T14:53:05.510Z,23.76
2017-03-04T14:54:15.812Z,23.8
2017-03-04T14:55:25.891Z,23.88
2017-03-04T14:56:36.213Z,23.88
2017-03-04T14:57:46.118Z,23.8
2017-03-04T14:58:56.402Z,23.91
2017-03-04T15:00:06.331Z,23.93
2017-03-04T15:01:17.184Z,23.94
2017-03-04T15:02:27.447Z,23.9
2017-03-04T15:03:37.358Z,23.91
2017-03-04T15:04:47.694Z,23.93
2017-03-04T15:05:57.985Z,23.9
2017-03-04T15:07:08.818Z,23.85
2017-03-04T15:08:18.358Z,23.9